sensor_id;sensor_type;location;lat;lon;timestamp;pressure;altitude;pressure_sealevel;temperature;humidity
9746;BME280;4912;50.836;12.958;2024-01-10T00:00:17;99164.16;;;-7.25;71.00
9746;BME280;4912;50.836;12.958;2024-01-10T00:02:48;99164.63;;;-7.31;71.36
9746;BME280;4912;50.836;12.958;2024-01-10T00:05:21;99166.81;;;-7.33;71.65
9746;BME280;4912;50.836;12.958;2024-01-10T00:07:52;99164.28;;;-7.38;72.48
9746;BME280;4912;50.836;12.958;2024-01-10T00:10:23;99159.06;;;-7.35;72.52
9746;BME280;4912;50.836;12.958;2024-01-10T00:15:45;99148.47;;;-7.40;73.11
9746;BME280;4912;50.836;12.958;2024-01-10T00:18:19;99150.38;;;-7.49;72.93
9746;BME280;4912;50.836;12.958;2024-01-10T00:20:52;99150.84;;;-7.47;72.90
9746;BME280;4912;50.836;12.958;2024-01-10T00:23:28;99137.41;;;-7.47;73.03
9746;BME280;4912;50.836;12.958;2024-01-10T00:25:58;99136.63;;;-7.39;73.69
9746;BME280;4912;50.836;12.958;2024-01-10T00:28:29;99138.66;;;-7.36;73.65
9746;BME280;4912;50.836;12.958;2024-01-10T00:31:00;99138.03;;;-7.33;73.38
9746;BME280;4912;50.836;12.958;2024-01-10T00:33:31;99143.25;;;-7.28;73.06
9746;BME280;4912;50.836;12.958;2024-01-10T00:36:08;99140.72;;;-7.33;73.82
9746;BME280;4912;50.836;12.958;2024-01-10T00:38:39;99124.13;;;-7.35;73.48
9746;BME280;4912;50.836;12.958;2024-01-10T00:41:10;99140.72;;;-7.33;73.62
9746;BME280;4912;50.836;12.958;2024-01-10T00:43:41;99141.22;;;-7.31;73.66
9746;BME280;4912;50.836;12.958;2024-01-10T00:46:12;99147.53;;;-7.27;73.28
9746;BME280;4912;50.836;12.958;2024-01-10T00:48:42;99139.47;;;-7.27;73.06
9746;BME280;4912;50.836;12.958;2024-01-10T00:51:16;99143.41;;;-7.24;73.23
9746;BME280;4912;50.836;12.958;2024-01-10T00:53:47;99146.09;;;-7.24;73.59
9746;BME280;4912;50.836;12.958;2024-01-10T00:56:18;99142.94;;;-7.26;73.30
9746;BME280;4912;50.836;12.958;2024-01-10T00:58:49;99130.47;;;-7.31;73.38
9746;BME280;4912;50.836;12.958;2024-01-10T01:01:25;99140.56;;;-7.28;73.28
9746;BME280;4912;50.836;12.958;2024-01-10T01:03:56;99139.59;;;-7.23;72.98
9746;BME280;4912;50.836;12.958;2024-01-10T01:06:32;99144.53;;;-7.25;72.89
9746;BME280;4912;50.836;12.958;2024-01-10T01:09:03;99142.28;;;-7.23;73.07
9746;BME280;4912;50.836;12.958;2024-01-10T01:11:33;99146.25;;;-7.21;73.09
9746;BME280;4912;50.836;12.958;2024-01-10T01:14:04;99141.97;;;-7.22;73.01
9746;BME280;4912;50.836;12.958;2024-01-10T01:16:35;99152.44;;;-7.20;72.78
9746;BME280;4912;50.836;12.958;2024-01-10T01:19:09;99143.41;;;-7.16;72.82
9746;BME280;4912;50.836;12.958;2024-01-10T01:21:42;99146.09;;;-7.16;73.18
9746;BME280;4912;50.836;12.958;2024-01-10T01:24:12;99145.47;;;-7.13;73.37
9746;BME280;4912;50.836;12.958;2024-01-10T01:26:43;99139.31;;;-7.13;73.48
9746;BME280;4912;50.836;12.958;2024-01-10T01:29:16;99138.50;;;-7.14;73.06
9746;BME280;4912;50.836;12.958;2024-01-10T01:31:47;99137.41;;;-7.21;73.28
9746;BME280;4912;50.836;12.958;2024-01-10T01:34:19;99127.75;;;-7.22;73.56
9746;BME280;4912;50.836;12.958;2024-01-10T01:36:53;99131.41;;;-7.27;73.38
9746;BME280;4912;50.836;12.958;2024-01-10T01:39:23;99119.38;;;-7.29;73.67
9746;BME280;4912;50.836;12.958;2024-01-10T01:41:54;99125.84;;;-7.22;73.83
9746;BME280;4912;50.836;12.958;2024-01-10T01:44:25;99116.06;;;-7.26;73.51
9746;BME280;4912;50.836;12.958;2024-01-10T01:46:56;99120.03;;;-7.32;73.70
9746;BME280;4912;50.836;12.958;2024-01-10T01:49:28;99121.25;;;-7.30;73.93
9746;BME280;4912;50.836;12.958;2024-01-10T01:52:02;99112.25;;;-7.34;73.53
9746;BME280;4912;50.836;12.958;2024-01-10T01:54:34;99107.06;;;-7.39;73.43
9746;BME280;4912;50.836;12.958;2024-01-10T01:57:05;99105.94;;;-7.38;73.20
9746;BME280;4912;50.836;12.958;2024-01-10T01:59:36;99112.44;;;-7.30;73.38
9746;BME280;4912;50.836;12.958;2024-01-10T02:02:07;99112.09;;;-7.29;73.45
9746;BME280;4912;50.836;12.958;2024-01-10T02:04:38;99114.78;;;-7.29;73.43
9746;BME280;4912;50.836;12.958;2024-01-10T02:07:12;99104.38;;;-7.30;73.28
9746;BME280;4912;50.836;12.958;2024-01-10T02:09:42;99103.09;;;-7.33;73.67
9746;BME280;4912;50.836;12.958;2024-01-10T02:12:13;99085.88;;;-7.32;73.70
9746;BME280;4912;50.836;12.958;2024-01-10T02:14:44;99104.69;;;-7.40;73.28
9746;BME280;4912;50.836;12.958;2024-01-10T02:17:15;99090.44;;;-7.41;73.21
9746;BME280;4912;50.836;12.958;2024-01-10T02:19:46;99100.13;;;-7.49;73.71
9746;BME280;4912;50.836;12.958;2024-01-10T02:22:19;99101.03;;;-7.53;73.61
9746;BME280;4912;50.836;12.958;2024-01-10T02:24:53;99092.38;;;-7.50;73.49
9746;BME280;4912;50.836;12.958;2024-01-10T02:27:27;99099.63;;;-7.42;73.69
9746;BME280;4912;50.836;12.958;2024-01-10T02:29:59;99090.44;;;-7.41;73.67
9746;BME280;4912;50.836;12.958;2024-01-10T02:32:31;99091.56;;;-7.33;73.53
9746;BME280;4912;50.836;12.958;2024-01-10T02:35:03;99089.66;;;-7.33;73.36
9746;BME280;4912;50.836;12.958;2024-01-10T02:37:35;99090.63;;;-7.37;73.02
9746;BME280;4912;50.836;12.958;2024-01-10T02:40:09;99102.78;;;-7.40;73.27
9746;BME280;4912;50.836;12.958;2024-01-10T02:42:41;99105.31;;;-7.35;73.52
9746;BME280;4912;50.836;12.958;2024-01-10T02:45:12;99094.72;;;-7.31;73.27
9746;BME280;4912;50.836;12.958;2024-01-10T02:47:42;99092.97;;;-7.27;73.17
9746;BME280;4912;50.836;12.958;2024-01-10T02:50:13;99099.28;;;-7.23;73.05
9746;BME280;4912;50.836;12.958;2024-01-10T02:52:44;99095.50;;;-7.31;72.74
9746;BME280;4912;50.836;12.958;2024-01-10T02:55:17;99102.47;;;-7.47;72.68
9746;BME280;4912;50.836;12.958;2024-01-10T02:57:48;99104.22;;;-7.42;72.74
9746;BME280;4912;50.836;12.958;2024-01-10T03:00:19;99105.16;;;-7.38;72.69
9746;BME280;4912;50.836;12.958;2024-01-10T03:02:51;99108.34;;;-7.36;72.71
9746;BME280;4912;50.836;12.958;2024-01-10T03:05:21;99099.00;;;-7.30;73.04
9746;BME280;4912;50.836;12.958;2024-01-10T03:07:52;99102.97;;;-7.36;72.82
9746;BME280;4912;50.836;12.958;2024-01-10T03:10:25;99104.19;;;-7.34;72.95
9746;BME280;4912;50.836;12.958;2024-01-10T03:12:56;99099.00;;;-7.48;73.25
9746;BME280;4912;50.836;12.958;2024-01-10T03:15:26;99102.19;;;-7.54;73.51
9746;BME280;4912;50.836;12.958;2024-01-10T03:17:58;99101.84;;;-7.44;73.89
9746;BME280;4912;50.836;12.958;2024-01-10T03:20:29;99103.56;;;-7.39;73.77
9746;BME280;4912;50.836;12.958;2024-01-10T03:22:59;99102.47;;;-7.38;73.41
9746;BME280;4912;50.836;12.958;2024-01-10T03:25:32;99106.72;;;-7.29;73.39
9746;BME280;4912;50.836;12.958;2024-01-10T03:28:03;99094.38;;;-7.30;73.54
9746;BME280;4912;50.836;12.958;2024-01-10T03:30:34;99101.34;;;-7.29;73.83
9746;BME280;4912;50.836;12.958;2024-01-10T03:33:05;99095.19;;;-7.29;73.76
9746;BME280;4912;50.836;12.958;2024-01-10T03:35:36;99087.75;;;-7.32;73.20
9746;BME280;4912;50.836;12.958;2024-01-10T03:38:06;99083.78;;;-7.35;72.92
9746;BME280;4912;50.836;12.958;2024-01-10T03:40:39;99082.56;;;-7.46;72.67
9746;BME280;4912;50.836;12.958;2024-01-10T03:43:10;99088.56;;;-7.58;73.58
9746;BME280;4912;50.836;12.958;2024-01-10T03:45:41;99089.06;;;-7.56;74.22
9746;BME280;4912;50.836;12.958;2024-01-10T03:48:11;99083.38;;;-7.54;74.40
9746;BME280;4912;50.836;12.958;2024-01-10T03:50:42;99096.63;;;-7.58;74.11
9746;BME280;4912;50.836;12.958;2024-01-10T03:53:12;99084.94;;;-7.62;74.31
9746;BME280;4912;50.836;12.958;2024-01-10T03:55:46;99086.19;;;-7.59;74.04
9746;BME280;4912;50.836;12.958;2024-01-10T03:58:16;99092.19;;;-7.54;74.14
9746;BME280;4912;50.836;12.958;2024-01-10T04:00:47;99083.66;;;-7.47;73.81
9746;BME280;4912;50.836;12.958;2024-01-10T04:03:17;99091.56;;;-7.33;73.65
9746;BME280;4912;50.836;12.958;2024-01-10T04:05:48;99096.44;;;-7.27;72.89
9746;BME280;4912;50.836;12.958;2024-01-10T04:08:19;99095.19;;;-7.38;72.45
9746;BME280;4912;50.836;12.958;2024-01-10T04:10:52;99090.78;;;-7.51;72.89
9746;BME280;4912;50.836;12.958;2024-01-10T04:13:22;99091.09;;;-7.61;73.15
9746;BME280;4912;50.836;12.958;2024-01-10T04:15:53;99098.84;;;-7.68;73.50
9746;BME280;4912;50.836;12.958;2024-01-10T04:18:24;99094.25;;;-7.59;73.72
9746;BME280;4912;50.836;12.958;2024-01-10T04:20:55;99092.03;;;-7.57;74.16
9746;BME280;4912;50.836;12.958;2024-01-10T04:23:25;99091.25;;;-7.49;73.66
9746;BME280;4912;50.836;12.958;2024-01-10T04:26:00;99085.53;;;-7.48;73.93
9746;BME280;4912;50.836;12.958;2024-01-10T04:28:32;99080.78;;;-7.42;73.93
9746;BME280;4912;50.836;12.958;2024-01-10T04:31:02;99079.25;;;-7.43;73.80
9746;BME280;4912;50.836;12.958;2024-01-10T04:33:33;99069.13;;;-7.46;73.72
9746;BME280;4912;50.836;12.958;2024-01-10T04:36:05;99073.38;;;-7.45;73.89
9746;BME280;4912;50.836;12.958;2024-01-10T04:38:36;99067.88;;;-7.49;73.67
9746;BME280;4912;50.836;12.958;2024-01-10T04:41:09;99072.28;;;-7.44;73.59
9746;BME280;4912;50.836;12.958;2024-01-10T04:43:40;99071.47;;;-7.36;73.36
9746;BME280;4912;50.836;12.958;2024-01-10T04:46:11;99065.31;;;-7.36;73.03
9746;BME280;4912;50.836;12.958;2024-01-10T04:48:42;99067.53;;;-7.38;72.37
9746;BME280;4912;50.836;12.958;2024-01-10T04:51:12;99065.63;;;-7.38;72.05
9746;BME280;4912;50.836;12.958;2024-01-10T04:53:44;99060.75;;;-7.45;71.55
9746;BME280;4912;50.836;12.958;2024-01-10T04:56:17;99065.50;;;-7.50;72.26
9746;BME280;4912;50.836;12.958;2024-01-10T04:58:48;99064.84;;;-7.47;72.54
9746;BME280;4912;50.836;12.958;2024-01-10T05:01:19;99071.00;;;-7.38;72.59
9746;BME280;4912;50.836;12.958;2024-01-10T05:03:49;99063.41;;;-7.36;72.31
9746;BME280;4912;50.836;12.958;2024-01-10T05:06:20;99067.53;;;-7.38;72.36
9746;BME280;4912;50.836;12.958;2024-01-10T05:08:51;99053.00;;;-7.46;72.47
9746;BME280;4912;50.836;12.958;2024-01-10T05:11:27;99055.22;;;-7.48;72.44
9746;BME280;4912;50.836;12.958;2024-01-10T05:13:58;99056.31;;;-7.49;72.46
9746;BME280;4912;50.836;12.958;2024-01-10T05:16:28;99054.91;;;-7.64;73.21
9746;BME280;4912;50.836;12.958;2024-01-10T05:19:01;99053.63;;;-7.58;73.59
9746;BME280;4912;50.836;12.958;2024-01-10T05:21:33;99055.53;;;-7.58;73.09
9746;BME280;4912;50.836;12.958;2024-01-10T05:24:04;99057.91;;;-7.48;73.44
9746;BME280;4912;50.836;12.958;2024-01-10T05:26:38;99060.91;;;-7.50;73.50
9746;BME280;4912;50.836;12.958;2024-01-10T05:29:08;99055.84;;;-7.60;73.58
9746;BME280;4912;50.836;12.958;2024-01-10T05:31:39;99068.34;;;-7.55;73.37
9746;BME280;4912;50.836;12.958;2024-01-10T05:34:10;99066.59;;;-7.51;73.73
9746;BME280;4912;50.836;12.958;2024-01-10T05:36:40;99066.28;;;-7.58;73.52
9746;BME280;4912;50.836;12.958;2024-01-10T05:39:11;99064.38;;;-7.49;73.36
9746;BME280;4912;50.836;12.958;2024-01-10T05:41:45;99061.22;;;-7.42;73.78
9746;BME280;4912;50.836;12.958;2024-01-10T05:44:18;99055.50;;;-7.41;73.90
9746;BME280;4912;50.836;12.958;2024-01-10T05:46:48;99068.94;;;-7.41;74.34
9746;BME280;4912;50.836;12.958;2024-01-10T05:49:19;99068.94;;;-7.41;74.17
9746;BME280;4912;50.836;12.958;2024-01-10T05:51:50;99070.34;;;-7.35;74.21
9746;BME280;4912;50.836;12.958;2024-01-10T05:54:20;99052.50;;;-7.31;73.75
9746;BME280;4912;50.836;12.958;2024-01-10T05:56:54;99061.50;;;-7.27;73.41
9746;BME280;4912;50.836;12.958;2024-01-10T05:59:24;99055.16;;;-7.22;73.58
9746;BME280;4912;50.836;12.958;2024-01-10T06:01:56;99058.63;;;-7.22;73.61
9746;BME280;4912;50.836;12.958;2024-01-10T06:04:26;99055.31;;;-7.19;73.64
9746;BME280;4912;50.836;12.958;2024-01-10T06:06:59;99059.13;;;-7.20;73.44
9746;BME280;4912;50.836;12.958;2024-01-10T06:09:31;99059.44;;;-7.21;73.20
9746;BME280;4912;50.836;12.958;2024-01-10T06:12:05;99061.94;;;-7.16;73.46
9746;BME280;4912;50.836;12.958;2024-01-10T06:14:36;99061.63;;;-7.15;73.60
9746;BME280;4912;50.836;12.958;2024-01-10T06:17:07;99057.03;;;-7.14;74.04
9746;BME280;4912;50.836;12.958;2024-01-10T06:19:38;99061.94;;;-7.16;74.26
9746;BME280;4912;50.836;12.958;2024-01-10T06:22:09;99056.56;;;-7.16;74.20
9746;BME280;4912;50.836;12.958;2024-01-10T06:24:40;99056.72;;;-7.13;73.71
9746;BME280;4912;50.836;12.958;2024-01-10T06:27:13;99065.72;;;-7.09;73.53
9746;BME280;4912;50.836;12.958;2024-01-10T06:29:45;99065.06;;;-7.06;73.38
9746;BME280;4912;50.836;12.958;2024-01-10T06:32:18;99065.25;;;-7.02;73.22
9746;BME280;4912;50.836;12.958;2024-01-10T06:34:49;99064.44;;;-7.03;73.46
9746;BME280;4912;50.836;12.958;2024-01-10T06:37:20;99064.13;;;-7.01;73.58
9746;BME280;4912;50.836;12.958;2024-01-10T06:39:51;99067.13;;;-7.03;73.67
9746;BME280;4912;50.836;12.958;2024-01-10T06:42:24;99060.16;;;-7.04;73.49
9746;BME280;4912;50.836;12.958;2024-01-10T06:44:55;99068.72;;;-7.01;73.61
9746;BME280;4912;50.836;12.958;2024-01-10T06:47:25;99066.34;;;-7.03;74.07
9746;BME280;4912;50.836;12.958;2024-01-10T06:49:56;99065.56;;;-7.04;74.06
9746;BME280;4912;50.836;12.958;2024-01-10T06:52:27;99060.16;;;-7.04;73.44
9746;BME280;4912;50.836;12.958;2024-01-10T06:54:58;99065.88;;;-7.05;73.33
9746;BME280;4912;50.836;12.958;2024-01-10T06:57:31;99080.28;;;-7.10;73.21
9746;BME280;4912;50.836;12.958;2024-01-10T07:00:01;99072.69;;;-7.08;73.27
9746;BME280;4912;50.836;12.958;2024-01-10T07:02:38;99067.31;;;-7.08;72.97
9746;BME280;4912;50.836;12.958;2024-01-10T07:05:09;99059.56;;;-7.09;73.03
9746;BME280;4912;50.836;12.958;2024-01-10T07:07:40;99065.56;;;-7.12;73.06
9746;BME280;4912;50.836;12.958;2024-01-10T07:10:11;99074.59;;;-7.17;73.49
9746;BME280;4912;50.836;12.958;2024-01-10T07:12:44;99075.38;;;-7.16;73.76
9746;BME280;4912;50.836;12.958;2024-01-10T07:15:15;99074.59;;;-7.08;73.85
9746;BME280;4912;50.836;12.958;2024-01-10T07:17:45;99072.22;;;-7.10;73.71
9746;BME280;4912;50.836;12.958;2024-01-10T07:20:16;99069.38;;;-7.13;73.68
9746;BME280;4912;50.836;12.958;2024-01-10T07:22:47;99067.94;;;-7.11;73.74
9746;BME280;4912;50.836;12.958;2024-01-10T07:25:18;99067.94;;;-7.11;73.92
9746;BME280;4912;50.836;12.958;2024-01-10T07:27:55;99072.22;;;-7.10;73.74
9746;BME280;4912;50.836;12.958;2024-01-10T07:30:26;99074.25;;;-7.07;73.99
9746;BME280;4912;50.836;12.958;2024-01-10T07:33:00;99079.78;;;-7.03;74.13
9746;BME280;4912;50.836;12.958;2024-01-10T07:35:31;99079.28;;;-6.96;73.70
9746;BME280;4912;50.836;12.958;2024-01-10T07:38:02;99081.16;;;-6.88;73.33
9746;BME280;4912;50.836;12.958;2024-01-10T07:40:35;99075.88;;;-6.76;72.99
9746;BME280;4912;50.836;12.958;2024-01-10T07:43:08;99088.63;;;-6.56;73.27
9746;BME280;4912;50.836;12.958;2024-01-10T07:45:39;99091.28;;;-6.47;73.08
9746;BME280;4912;50.836;12.958;2024-01-10T07:48:10;99091.56;;;-6.40;72.89
9746;BME280;4912;50.836;12.958;2024-01-10T07:50:41;99090.59;;;-6.36;72.74
9746;BME280;4912;50.836;12.958;2024-01-10T07:53:12;99085.03;;;-6.31;72.64
9746;BME280;4912;50.836;12.958;2024-01-10T07:55:43;99081.03;;;-6.25;72.56
9746;BME280;4912;50.836;12.958;2024-01-10T07:58:16;99088.13;;;-6.20;72.65
9746;BME280;4912;50.836;12.958;2024-01-10T08:00:47;99080.97;;;-6.16;72.52
9746;BME280;4912;50.836;12.958;2024-01-10T08:03:18;99089.03;;;-6.07;72.56
9746;BME280;4912;50.836;12.958;2024-01-10T08:05:48;99082.84;;;-6.08;72.58
9746;BME280;4912;50.836;12.958;2024-01-10T08:08:19;99084.34;;;-5.98;72.69
9746;BME280;4912;50.836;12.958;2024-01-10T08:10:50;99084.75;;;-5.88;72.84
9746;BME280;4912;50.836;12.958;2024-01-10T08:13:24;99084.50;;;-5.83;72.25
9746;BME280;4912;50.836;12.958;2024-01-10T08:15:54;99089.72;;;-5.78;72.45
9746;BME280;4912;50.836;12.958;2024-01-10T08:18:25;99090.91;;;-5.66;73.29
9746;BME280;4912;50.836;12.958;2024-01-10T08:20:56;99089.06;;;-5.54;73.26
9746;BME280;4912;50.836;12.958;2024-01-10T08:23:27;99094.44;;;-5.33;72.15
9746;BME280;4912;50.836;12.958;2024-01-10T08:25:57;99084.19;;;-5.07;71.62
9746;BME280;4912;50.836;12.958;2024-01-10T08:28:31;99087.69;;;-4.94;70.89
9746;BME280;4912;50.836;12.958;2024-01-10T08:31:01;99089.03;;;-4.88;70.61
9746;BME280;4912;50.836;12.958;2024-01-10T08:33:32;99092.47;;;-4.67;70.29
9746;BME280;4912;50.836;12.958;2024-01-10T08:36:04;99097.88;;;-4.67;70.16
9746;BME280;4912;50.836;12.958;2024-01-10T08:38:36;99099.91;;;-4.51;70.24
9746;BME280;4912;50.836;12.958;2024-01-10T08:41:07;99092.38;;;-4.22;70.78
9746;BME280;4912;50.836;12.958;2024-01-10T08:43:45;99091.88;;;-3.87;69.50
9746;BME280;4912;50.836;12.958;2024-01-10T08:46:16;99091.84;;;-3.75;68.90
9746;BME280;4912;50.836;12.958;2024-01-10T08:48:48;99088.09;;;-3.71;69.21
9746;BME280;4912;50.836;12.958;2024-01-10T08:51:18;99102.31;;;-3.61;68.96
9746;BME280;4912;50.836;12.958;2024-01-10T08:53:49;99100.91;;;-3.43;69.81
9746;BME280;4912;50.836;12.958;2024-01-10T08:56:20;99093.91;;;-2.57;68.26
9746;BME280;4912;50.836;12.958;2024-01-10T08:58:54;99097.03;;;-1.73;66.01
9746;BME280;4912;50.836;12.958;2024-01-10T09:01:25;99090.34;;;-1.60;63.74
9746;BME280;4912;50.836;12.958;2024-01-10T09:03:55;99087.25;;;-1.78;64.56
9746;BME280;4912;50.836;12.958;2024-01-10T09:06:26;99087.75;;;-1.72;65.21
9746;BME280;4912;50.836;12.958;2024-01-10T09:08:58;99089.19;;;-1.40;66.10
9746;BME280;4912;50.836;12.958;2024-01-10T09:11:29;99086.66;;;-0.91;64.36
9746;BME280;4912;50.836;12.958;2024-01-10T09:14:08;99087.00;;;-0.73;63.99
9746;BME280;4912;50.836;12.958;2024-01-10T09:16:39;99074.72;;;-0.63;61.84
9746;BME280;4912;50.836;12.958;2024-01-10T09:19:09;99077.63;;;-0.53;63.99
9746;BME280;4912;50.836;12.958;2024-01-10T09:21:42;99068.88;;;-0.43;64.03
9746;BME280;4912;50.836;12.958;2024-01-10T09:24:13;99075.78;;;-0.22;63.59
9746;BME280;4912;50.836;12.958;2024-01-10T09:26:55;99076.50;;;0.01;61.16
9746;BME280;4912;50.836;12.958;2024-01-10T09:29:28;99075.38;;;0.28;59.28
9746;BME280;4912;50.836;12.958;2024-01-10T09:31:59;99074.84;;;1.16;58.64
9746;BME280;4912;50.836;12.958;2024-01-10T09:34:30;99070.19;;;2.15;57.07
9746;BME280;4912;50.836;12.958;2024-01-10T09:37:00;99070.50;;;2.79;54.57
9746;BME280;4912;50.836;12.958;2024-01-10T09:39:32;99063.19;;;3.15;53.82
9746;BME280;4912;50.836;12.958;2024-01-10T09:42:04;99059.72;;;3.46;52.66
9746;BME280;4912;50.836;12.958;2024-01-10T09:44:38;99071.06;;;3.52;49.07
9746;BME280;4912;50.836;12.958;2024-01-10T09:47:09;99056.59;;;3.83;49.32
9746;BME280;4912;50.836;12.958;2024-01-10T09:49:40;99055.41;;;3.95;48.77
9746;BME280;4912;50.836;12.958;2024-01-10T09:52:19;99061.63;;;4.13;45.06
9746;BME280;4912;50.836;12.958;2024-01-10T09:54:56;99055.78;;;4.18;39.08
9746;BME280;4912;50.836;12.958;2024-01-10T09:57:27;99045.16;;;4.34;37.87
9746;BME280;4912;50.836;12.958;2024-01-10T10:00:01;99048.34;;;4.11;37.51
9746;BME280;4912;50.836;12.958;2024-01-10T10:02:33;99050.34;;;3.93;37.50
9746;BME280;4912;50.836;12.958;2024-01-10T10:05:11;99051.50;;;3.60;37.31
9746;BME280;4912;50.836;12.958;2024-01-10T10:07:45;99044.50;;;3.45;37.91
9746;BME280;4912;50.836;12.958;2024-01-10T10:10:18;99057.38;;;3.48;37.78
9746;BME280;4912;50.836;12.958;2024-01-10T10:12:50;99042.53;;;3.70;37.57
9746;BME280;4912;50.836;12.958;2024-01-10T10:15:25;99036.25;;;3.77;37.35
9746;BME280;4912;50.836;12.958;2024-01-10T10:17:56;99035.09;;;3.92;37.58
9746;BME280;4912;50.836;12.958;2024-01-10T10:20:28;99030.69;;;4.41;36.33
9746;BME280;4912;50.836;12.958;2024-01-10T10:23:02;99037.38;;;5.09;35.27
9746;BME280;4912;50.836;12.958;2024-01-10T10:25:35;99035.47;;;5.61;34.44
9746;BME280;4912;50.836;12.958;2024-01-10T10:28:06;99028.91;;;5.96;33.54
9746;BME280;4912;50.836;12.958;2024-01-10T10:30:54;99040.47;;;6.18;33.48
9746;BME280;4912;50.836;12.958;2024-01-10T10:33:25;99038.59;;;6.11;33.22
9746;BME280;4912;50.836;12.958;2024-01-10T10:35:55;99037.41;;;5.61;33.42
9746;BME280;4912;50.836;12.958;2024-01-10T10:38:28;99034.63;;;5.13;34.49
9746;BME280;4912;50.836;12.958;2024-01-10T10:40:59;99032.03;;;4.84;34.87
9746;BME280;4912;50.836;12.958;2024-01-10T10:43:29;99030.91;;;4.75;35.45
9746;BME280;4912;50.836;12.958;2024-01-10T10:46:09;99038.34;;;4.78;35.15
9746;BME280;4912;50.836;12.958;2024-01-10T10:48:42;99033.94;;;4.98;35.17
9746;BME280;4912;50.836;12.958;2024-01-10T10:51:15;99031.88;;;5.13;35.32
9746;BME280;4912;50.836;12.958;2024-01-10T10:53:49;99025.44;;;5.37;34.93
9746;BME280;4912;50.836;12.958;2024-01-10T10:56:20;99034.63;;;5.68;34.94
9746;BME280;4912;50.836;12.958;2024-01-10T10:58:52;99027.44;;;5.81;34.39
9746;BME280;4912;50.836;12.958;2024-01-10T11:01:27;99021.38;;;5.59;34.34
9746;BME280;4912;50.836;12.958;2024-01-10T11:03:58;99024.69;;;5.33;34.83
9746;BME280;4912;50.836;12.958;2024-01-10T11:06:29;99021.16;;;5.32;35.78
9746;BME280;4912;50.836;12.958;2024-01-10T11:09:01;99022.63;;;5.48;34.26
9746;BME280;4912;50.836;12.958;2024-01-10T11:11:50;99018.47;;;5.77;33.26
9746;BME280;4912;50.836;12.958;2024-01-10T11:14:38;99014.97;;;5.73;33.95
9746;BME280;4912;50.836;12.958;2024-01-10T11:17:40;99009.91;;;5.68;34.10
9746;BME280;4912;50.836;12.958;2024-01-10T11:20:41;99006.38;;;5.71;33.56
9746;BME280;4912;50.836;12.958;2024-01-10T11:23:45;99002.94;;;6.04;33.51
9746;BME280;4912;50.836;12.958;2024-01-10T11:26:19;99007.84;;;6.54;32.89
9746;BME280;4912;50.836;12.958;2024-01-10T11:28:50;99007.53;;;7.36;32.17
9746;BME280;4912;50.836;12.958;2024-01-10T11:31:28;99006.03;;;8.44;30.59
9746;BME280;4912;50.836;12.958;2024-01-10T11:34:02;98996.25;;;9.31;29.55
9746;BME280;4912;50.836;12.958;2024-01-10T11:36:34;98996.16;;;10.00;28.69
9746;BME280;4912;50.836;12.958;2024-01-10T11:39:05;98997.25;;;11.01;27.96
9746;BME280;4912;50.836;12.958;2024-01-10T11:41:39;98991.13;;;11.82;27.59
9746;BME280;4912;50.836;12.958;2024-01-10T11:44:25;98991.59;;;12.59;25.55
9746;BME280;4912;50.836;12.958;2024-01-10T11:46:58;98981.19;;;13.03;24.77
9746;BME280;4912;50.836;12.958;2024-01-10T11:49:32;98982.38;;;13.64;24.79
9746;BME280;4912;50.836;12.958;2024-01-10T11:52:03;98980.16;;;14.08;23.40
9746;BME280;4912;50.836;12.958;2024-01-10T11:54:38;98979.53;;;14.40;22.54
9746;BME280;4912;50.836;12.958;2024-01-10T11:57:09;98972.53;;;14.72;22.15
9746;BME280;4912;50.836;12.958;2024-01-10T11:59:42;98970.91;;;15.07;21.76
9746;BME280;4912;50.836;12.958;2024-01-10T12:02:15;98976.34;;;15.35;21.55
9746;BME280;4912;50.836;12.958;2024-01-10T12:04:49;98977.31;;;15.88;22.07
9746;BME280;4912;50.836;12.958;2024-01-10T12:07:20;98970.13;;;15.96;21.26
9746;BME280;4912;50.836;12.958;2024-01-10T12:09:52;98971.78;;;15.79;21.98
9746;BME280;4912;50.836;12.958;2024-01-10T12:12:23;98972.50;;;14.81;22.15
9746;BME280;4912;50.836;12.958;2024-01-10T12:14:53;98960.63;;;13.80;22.43
9746;BME280;4912;50.836;12.958;2024-01-10T12:17:27;98961.66;;;12.85;23.48
9746;BME280;4912;50.836;12.958;2024-01-10T12:20:01;98968.16;;;11.82;24.74
9746;BME280;4912;50.836;12.958;2024-01-10T12:22:33;98965.13;;;11.17;26.18
9746;BME280;4912;50.836;12.958;2024-01-10T12:25:04;98969.16;;;10.61;26.48
9746;BME280;4912;50.836;12.958;2024-01-10T12:27:35;98967.44;;;10.10;27.69
9746;BME280;4912;50.836;12.958;2024-01-10T12:30:07;98971.28;;;9.67;27.93
9746;BME280;4912;50.836;12.958;2024-01-10T12:32:38;98970.16;;;9.81;27.71
9746;BME280;4912;50.836;12.958;2024-01-10T12:35:12;98963.75;;;10.00;27.83
9746;BME280;4912;50.836;12.958;2024-01-10T12:37:53;98963.47;;;11.06;27.55
9746;BME280;4912;50.836;12.958;2024-01-10T12:40:25;98962.53;;;12.51;25.77
9746;BME280;4912;50.836;12.958;2024-01-10T12:43:01;98959.13;;;12.99;24.55
9746;BME280;4912;50.836;12.958;2024-01-10T12:45:32;98952.78;;;14.06;24.48
9746;BME280;4912;50.836;12.958;2024-01-10T12:48:04;98946.09;;;15.75;23.14
9746;BME280;4912;50.836;12.958;2024-01-10T12:50:38;98947.31;;;16.51;22.17
9746;BME280;4912;50.836;12.958;2024-01-10T12:53:09;98950.53;;;17.38;21.72
9746;BME280;4912;50.836;12.958;2024-01-10T12:55:40;98949.16;;;18.03;20.86
9746;BME280;4912;50.836;12.958;2024-01-10T12:58:11;98940.44;;;18.67;21.15
9746;BME280;4912;50.836;12.958;2024-01-10T13:00:42;98936.19;;;19.03;21.64
9746;BME280;4912;50.836;12.958;2024-01-10T13:03:13;98930.28;;;19.33;21.17
9746;BME280;4912;50.836;12.958;2024-01-10T13:05:47;98941.69;;;19.55;20.83
9746;BME280;4912;50.836;12.958;2024-01-10T13:08:18;98943.50;;;20.17;21.58
9746;BME280;4912;50.836;12.958;2024-01-10T13:10:49;98948.25;;;20.70;19.94
9746;BME280;4912;50.836;12.958;2024-01-10T13:13:20;98929.06;;;20.91;19.86
9746;BME280;4912;50.836;12.958;2024-01-10T13:15:51;98935.22;;;21.01;19.95
9746;BME280;4912;50.836;12.958;2024-01-10T13:18:23;98941.34;;;20.55;19.81
9746;BME280;4912;50.836;12.958;2024-01-10T13:20:58;98935.66;;;19.73;19.77
9746;BME280;4912;50.836;12.958;2024-01-10T13:23:29;98933.00;;;18.59;20.65
9746;BME280;4912;50.836;12.958;2024-01-10T13:26:01;98931.81;;;17.44;21.16
9746;BME280;4912;50.836;12.958;2024-01-10T13:28:32;98933.03;;;16.20;21.50
9746;BME280;4912;50.836;12.958;2024-01-10T13:31:02;98931.09;;;15.40;22.39
9746;BME280;4912;50.836;12.958;2024-01-10T13:33:33;98940.84;;;14.51;23.79
9746;BME280;4912;50.836;12.958;2024-01-10T13:36:15;98938.91;;;13.08;25.72
9746;BME280;4912;50.836;12.958;2024-01-10T13:38:46;98939.53;;;11.85;27.56
9746;BME280;4912;50.836;12.958;2024-01-10T13:41:17;98942.28;;;10.87;29.16